Time;durP1;ratioP1;P1;durP2;ratioP2;P2;SDS_P1;SDS_P2;PMS_P1;PMS_P2;Temp;Humidity;BMP_temperature;BMP_pressure;BME280_temperature;BME280_humidity;BME280_pressure;Samples;Min_cycle;Max_cycle;Signal;HPM_P1;HPM_P2
2023/07/30 00:01:07;;;;;;;5.22;2.78;;;21.50;72.70;;;;;;5044327;28;20017;-61
2023/07/30 00:03:33;;;;;;;2.85;2.35;;;21.50;72.10;;;;;;5038613;28;20551;-61
2023/07/30 00:05:59;;;;;;;3.33;2.55;;;21.50;72.10;;;;;;5040378;28;20048;-61
2023/07/30 00:08:24;;;;;;;6.18;2.72;;;21.50;72.20;;;;;;5039979;28;20554;-62
2023/07/30 00:10:50;;;;;;;6.00;2.53;;;21.50;72.30;;;;;;5044898;28;20387;-62
2023/07/30 00:13:16;;;;;;;3.03;2.17;;;21.40;72.40;;;;;;5039896;28;20128;-62
2023/07/30 00:15:41;;;;;;;2.65;2.30;;;21.50;72.40;;;;;;5044029;28;20496;-61
2023/07/30 00:18:07;;;;;;;3.28;2.15;;;21.50;72.20;;;;;;5042452;28;20021;-62
2023/07/30 00:20:35;;;;;;;4.03;2.70;;;21.40;72.40;;;;;;5048056;28;20143;-61
2023/07/30 00:23:01;;;;;;;7.55;2.53;;;21.40;72.20;;;;;;5041091;28;20033;-61
2023/07/30 00:25:27;;;;;;;4.97;2.30;;;21.40;72.20;;;;;;5041203;28;20134;-61
2023/07/30 00:27:52;;;;;;;3.35;2.05;;;21.40;72.50;;;;;;5045194;28;20106;-61
2023/07/30 00:30:18;;;;;;;6.70;2.10;;;21.30;72.50;;;;;;5047057;28;20025;-61
2023/07/30 00:32:44;;;;;;;1.90;1.50;;;21.30;72.60;;;;;;5041968;28;20029;-61
2023/07/30 00:35:10;;;;;;;1.58;1.48;;;21.30;71.30;;;;;;5039662;28;20025;-61
2023/07/30 00:37:36;;;;;;;1.33;1.10;;;21.30;71.10;;;;;;5047151;28;20032;-61
2023/07/30 00:40:03;;;;;;;3.08;1.02;;;21.20;70.30;;;;;;5039142;28;20021;-62
2023/07/30 00:42:29;;;;;;;2.05;1.00;;;21.20;69.40;;;;;;5046625;28;20075;-60
2023/07/30 00:44:54;;;;;;;2.20;1.08;;;21.10;68.70;;;;;;5040686;28;20416;-61
2023/07/30 00:47:21;;;;;;;4.20;1.00;;;21.00;68.40;;;;;;5045596;28;20074;-61
2023/07/30 00:49:48;;;;;;;1.30;0.70;;;20.90;68.20;;;;;;5023465;28;20090;-61
2023/07/30 00:52:17;;;;;;;1.83;0.80;;;20.80;68.10;;;;;;5047235;28;20060;-62
2023/07/30 00:54:43;;;;;;;3.10;0.80;;;20.70;68.10;;;;;;5044194;28;20090;-61
2023/07/30 00:57:10;;;;;;;1.35;0.70;;;20.60;68.40;;;;;;5034941;28;20152;-61
2023/07/30 00:59:36;;;;;;;3.08;0.88;;;20.60;68.30;;;;;;5039471;28;20404;-60
2023/07/30 01:02:03;;;;;;;4.35;0.80;;;20.40;68.40;;;;;;5043981;28;20136;-60
2023/07/30 01:04:29;;;;;;;3.33;0.60;;;20.40;68.80;;;;;;5034358;28;20029;-62
2023/07/30 01:06:55;;;;;;;3.50;0.75;;;20.30;69.00;;;;;;5041463;28;20048;-61
2023/07/30 01:09:21;;;;;;;1.50;0.90;;;20.20;69.10;;;;;;5044391;28;20447;-60
2023/07/30 01:11:46;;;;;;;1.50;0.70;;;20.10;69.40;;;;;;5041805;28;20112;-59
2023/07/30 01:14:14;;;;;;;1.50;0.70;;;20.10;69.70;;;;;;5042981;28;20037;-60
2023/07/30 01:16:40;;;;;;;4.07;0.70;;;20.00;70.00;;;;;;4932571;28;21046;-60
2023/07/30 01:19:06;;;;;;;0.63;0.50;;;20.00;70.00;;;;;;5040941;28;20447;-60
2023/07/30 01:21:36;;;;;;;3.95;0.73;;;19.90;69.90;;;;;;5035776;28;20021;-61
2023/07/30 01:24:02;;;;;;;1.50;0.90;;;19.90;70.00;;;;;;5042496;28;20372;-60
2023/07/30 01:26:39;;;;;;;2.13;0.90;;;19.90;70.00;;;;;;5044194;28;20035;-61
2023/07/30 01:29:13;;;;;;;2.55;1.00;;;19.80;70.20;;;;;;5037191;28;20030;-61
2023/07/30 01:31:41;;;;;;;4.90;0.73;;;19.80;70.50;;;;;;5041124;28;20098;-62
2023/07/30 01:34:10;;;;;;;1.77;0.80;;;19.70;70.40;;;;;;5045380;28;20068;-61
2023/07/30 01:36:37;;;;;;;3.78;0.80;;;19.70;70.60;;;;;;5041162;28;20028;-61
2023/07/30 01:39:03;;;;;;;1.25;0.75;;;19.60;70.90;;;;;;5043405;28;20519;-62
2023/07/30 01:41:29;;;;;;;3.40;0.90;;;19.60;71.20;;;;;;5046241;28;20537;-61
2023/07/30 01:43:54;;;;;;;2.20;0.70;;;19.50;71.20;;;;;;5038886;28;20040;-61
2023/07/30 01:46:20;;;;;;;1.20;0.63;;;19.50;71.40;;;;;;5039964;28;20084;-60
2023/07/30 01:48:46;;;;;;;1.65;0.95;;;19.50;71.40;;;;;;5038847;28;20035;-60
2023/07/30 01:51:11;;;;;;;4.07;0.75;;;19.50;71.60;;;;;;5044022;28;20025;-60
2023/07/30 01:53:37;;;;;;;1.38;0.77;;;19.40;71.70;;;;;;5039326;28;20025;-61
2023/07/30 01:56:03;;;;;;;3.40;0.70;;;19.60;72.10;;;;;;5036723;28;20046;-61
2023/07/30 01:58:28;;;;;;;1.17;1.05;;;19.40;72.30;;;;;;5037699;28;20445;-61
2023/07/30 02:00:54;;;;;;;2.08;0.90;;;19.40;72.30;;;;;;5040297;28;20021;-61
2023/07/30 02:03:20;;;;;;;1.02;0.75;;;19.40;72.30;;;;;;5039197;28;20045;-61
2023/07/30 02:05:45;;;;;;;8.93;0.85;;;19.40;72.30;;;;;;5041975;28;20029;-61
2023/07/30 02:08:13;;;;;;;2.70;0.75;;;19.40;72.30;;;;;;5041988;28;20060;-61
2023/07/30 02:10:38;;;;;;;2.20;0.95;;;19.30;72.20;;;;;;5042212;28;20029;-62
2023/07/30 02:13:04;;;;;;;1.00;0.70;;;19.30;72.20;;;;;;5042810;28;20025;-61
2023/07/30 02:15:30;;;;;;;2.40;0.70;;;19.30;72.40;;;;;;5046613;28;20076;-61
2023/07/30 02:17:55;;;;;;;1.17;0.75;;;19.30;72.50;;;;;;5024587;28;20484;-60
2023/07/30 02:20:21;;;;;;;1.15;0.80;;;19.30;72.60;;;;;;5047948;28;20028;-61
2023/07/30 02:22:47;;;;;;;0.60;0.60;;;19.50;72.90;;;;;;5046510;28;20025;-61
2023/07/30 02:25:13;;;;;;;1.55;0.50;;;19.30;72.90;;;;;;5037947;28;20422;-62
2023/07/30 02:27:38;;;;;;;0.63;0.60;;;19.30;73.00;;;;;;5045754;28;20025;-61
2023/07/30 02:30:05;;;;;;;2.85;0.70;;;19.30;73.00;;;;;;5046686;28;20111;-60
2023/07/30 02:32:30;;;;;;;1.02;0.60;;;19.30;72.90;;;;;;5050884;28;20028;-61
2023/07/30 02:34:56;;;;;;;2.53;0.90;;;19.30;72.90;;;;;;5041311;28;20035;-61
2023/07/30 02:37:22;;;;;;;1.85;0.60;;;19.30;72.90;;;;;;5048526;28;20164;-60
2023/07/30 02:39:47;;;;;;;3.42;0.63;;;19.30;73.00;;;;;;5047776;28;20116;-60
2023/07/30 02:42:13;;;;;;;1.35;0.77;;;19.30;73.00;;;;;;5041069;28;20116;-61
2023/07/30 02:44:39;;;;;;;2.53;0.88;;;19.30;73.10;;;;;;5042292;28;20119;-60
2023/07/30 02:47:05;;;;;;;3.33;0.90;;;19.30;73.00;;;;;;5042960;28;20029;-60
2023/07/30 02:49:30;;;;;;;1.58;0.70;;;19.30;73.00;;;;;;5043345;28;20022;-60
2023/07/30 02:51:56;;;;;;;1.15;0.90;;;19.30;73.00;;;;;;5042945;28;20040;-62
2023/07/30 02:54:23;;;;;;;0.93;0.60;;;19.30;73.00;;;;;;5030464;28;20025;-62
2023/07/30 02:56:48;;;;;;;2.58;0.60;;;19.20;72.90;;;;;;5045483;28;20094;-62
2023/07/30 02:59:14;;;;;;;0.50;0.50;;;19.20;72.90;;;;;;5052298;28;20028;-60
2023/07/30 03:01:40;;;;;;;1.67;0.70;;;19.20;72.90;;;;;;5053321;28;20104;-61
2023/07/30 03:04:05;;;;;;;2.25;0.90;;;19.20;73.00;;;;;;5045201;28;20059;-61
2023/07/30 03:06:31;;;;;;;4.13;1.17;;;19.10;73.10;;;;;;5040827;28;20083;-61
2023/07/30 03:08:57;;;;;;;4.53;1.10;;;19.10;73.40;;;;;;5044827;28;20365;-61
2023/07/30 03:11:23;;;;;;;2.17;1.00;;;19.10;73.40;;;;;;5045485;28;20032;-60
2023/07/30 03:13:49;;;;;;;3.80;0.90;;;19.10;73.50;;;;;;5042886;28;20086;-60
2023/07/30 03:16:14;;;;;;;3.40;1.10;;;19.10;73.60;;;;;;4942606;28;20120;-62
2023/07/30 03:18:40;;;;;;;2.35;1.00;;;19.10;73.70;;;;;;5046405;28;20026;-60
2023/07/30 03:21:06;;;;;;;2.35;1.17;;;19.10;73.80;;;;;;5048044;28;20037;-60
2023/07/30 03:23:31;;;;;;;2.72;1.10;;;19.00;73.80;;;;;;5047347;28;20032;-62
2023/07/30 03:25:59;;;;;;;2.60;1.00;;;19.00;73.90;;;;;;5049390;28;20033;-60
2023/07/30 03:28:25;;;;;;;6.32;1.70;;;19.00;73.90;;;;;;5048353;28;20044;-61
2023/07/30 03:30:51;;;;;;;2.67;0.80;;;19.00;73.90;;;;;;5052578;28;20083;-60
2023/07/30 03:33:17;;;;;;;4.25;0.93;;;19.00;73.90;;;;;;5052373;28;20173;-61
2023/07/30 03:35:42;;;;;;;1.60;0.70;;;19.00;73.70;;;;;;5047759;28;20453;-60
2023/07/30 03:38:08;;;;;;;2.17;0.88;;;19.00;73.60;;;;;;5042369;28;20375;-60
2023/07/30 03:40:34;;;;;;;2.83;0.82;;;18.90;73.50;;;;;;5046955;28;20108;-61
2023/07/30 03:42:59;;;;;;;2.03;1.00;;;18.90;73.50;;;;;;5039912;28;20025;-61
2023/07/30 03:45:25;;;;;;;2.63;1.00;;;18.90;73.60;;;;;;5041977;28;20029;-61
2023/07/30 03:47:50;;;;;;;1.23;1.13;;;18.80;73.70;;;;;;5043350;28;20034;-61
2023/07/30 03:50:16;;;;;;;2.35;1.13;;;18.80;73.70;;;;;;5040089;28;20032;-62
2023/07/30 03:52:42;;;;;;;2.17;1.10;;;18.80;73.90;;;;;;5041282;28;20131;-61
2023/07/30 03:55:08;;;;;;;1.20;1.10;;;18.80;74.10;;;;;;5041448;28;20037;-62
2023/07/30 03:57:33;;;;;;;1.73;1.10;;;18.70;74.10;;;;;;5038810;28;20111;-62
2023/07/30 04:00:00;;;;;;;1.95;1.30;;;18.70;74.30;;;;;;5048515;28;20036;-61
2023/07/30 04:02:25;;;;;;;4.25;1.13;;;18.70;74.50;;;;;;5022169;28;20029;-60
2023/07/30 04:04:51;;;;;;;8.07;1.15;;;18.70;74.60;;;;;;5041259;28;20086;-61
2023/07/30 04:07:17;;;;;;;3.38;1.35;;;18.70;74.70;;;;;;5040685;28;20029;-61
2023/07/30 04:09:42;;;;;;;3.72;1.10;;;18.70;74.80;;;;;;5043726;28;20025;-61
2023/07/30 04:12:08;;;;;;;2.03;0.90;;;18.70;74.80;;;;;;5047508;28;20124;-60
2023/07/30 04:14:34;;;;;;;3.08;1.00;;;18.70;74.80;;;;;;5040986;28;20037;-60
2023/07/30 04:17:01;;;;;;;2.10;0.93;;;18.70;74.70;;;;;;5034490;28;20026;-60
2023/07/30 04:19:27;;;;;;;3.03;0.98;;;18.70;74.70;;;;;;5039824;28;20456;-61
2023/07/30 04:21:53;;;;;;;6.35;1.10;;;18.70;74.70;;;;;;5041526;28;20056;-61
2023/07/30 04:24:18;;;;;;;3.38;1.30;;;18.70;74.80;;;;;;5035139;28;20033;-60
2023/07/30 04:26:44;;;;;;;1.33;0.93;;;18.70;74.80;;;;;;5039770;28;20025;-60
2023/07/30 04:29:10;;;;;;;2.80;1.15;;;18.70;74.90;;;;;;5041097;28;20052;-62
2023/07/30 04:31:36;;;;;;;4.95;1.20;;;18.70;75.00;;;;;;5042130;28;20017;-61
2023/07/30 04:34:01;;;;;;;4.00;1.38;;;18.70;75.00;;;;;;5041588;28;20525;-61
2023/07/30 04:36:27;;;;;;;2.70;1.00;;;18.70;75.20;;;;;;5042151;28;20025;-61
2023/07/30 04:38:54;;;;;;;1.75;1.20;;;18.70;75.40;;;;;;5037160;28;20061;-61
2023/07/30 04:41:20;;;;;;;1.10;0.90;;;18.70;75.60;;;;;;5048818;28;20021;-61
2023/07/30 04:43:46;;;;;;;4.80;1.20;;;18.70;75.80;;;;;;5047502;28;20598;-61
2023/07/30 04:46:11;;;;;;;2.53;1.20;;;18.80;76.10;;;;;;5042875;28;20104;-62
2023/07/30 04:48:37;;;;;;;3.00;1.35;;;18.80;76.20;;;;;;5041862;28;20368;-61
2023/07/30 04:51:03;;;;;;;4.07;1.30;;;18.80;76.40;;;;;;5037719;28;20104;-61
2023/07/30 04:53:29;;;;;;;1.75;1.35;;;18.90;76.70;;;;;;5039632;28;20086;-61
2023/07/30 04:55:58;;;;;;;3.80;1.58;;;19.00;76.90;;;;;;5039412;28;20041;-61
2023/07/30 04:58:24;;;;;;;2.92;1.60;;;19.00;77.20;;;;;;5042928;28;20026;-61
2023/07/30 05:00:49;;;;;;;1.88;1.65;;;19.10;77.10;;;;;;5041322;28;20025;-61
2023/07/30 05:03:15;;;;;;;4.20;1.98;;;19.20;77.10;;;;;;5046159;28;20040;-61
2023/07/30 05:05:41;;;;;;;4.72;2.00;;;19.30;77.20;;;;;;5045386;28;20021;-61
2023/07/30 05:08:07;;;;;;;3.42;1.90;;;19.60;77.50;;;;;;5043008;28;20048;-61
2023/07/30 05:10:33;;;;;;;3.08;1.83;;;19.50;77.40;;;;;;5043862;28;20032;-61
2023/07/30 05:12:59;;;;;;;2.25;1.60;;;19.70;77.60;;;;;;5048183;28;20033;-62
2023/07/30 05:15:25;;;;;;;3.72;1.90;;;19.80;77.80;;;;;;5035913;28;20021;-61
2023/07/30 05:17:51;;;;;;;3.50;2.10;;;20.00;77.80;;;;;;5043895;28;20028;-61
2023/07/30 05:20:16;;;;;;;2.72;1.65;;;20.10;77.00;;;;;;5045345;28;20082;-60
2023/07/30 05:22:42;;;;;;;2.35;1.70;;;20.20;76.20;;;;;;5036935;28;20029;-60
2023/07/30 05:25:08;;;;;;;3.47;1.65;;;20.30;75.90;;;;;;5043620;28;20060;-61
2023/07/30 05:27:35;;;;;;;2.40;1.73;;;20.40;75.80;;;;;;5039318;28;20021;-60
2023/07/30 05:30:01;;;;;;;3.25;1.90;;;20.40;75.70;;;;;;5043969;28;20112;-61
2023/07/30 05:32:27;;;;;;;2.88;2.20;;;20.50;75.70;;;;;;5045362;28;20507;-60
2023/07/30 05:34:52;;;;;;;6.85;2.15;;;20.50;75.20;;;;;;5045795;28;20021;-60
2023/07/30 05:37:18;;;;;;;5.38;2.05;;;20.60;75.10;;;;;;5038349;28;20021;-60
2023/07/30 05:39:44;;;;;;;2.63;2.00;;;20.60;75.20;;;;;;5036995;28;20039;-60
2023/07/30 05:42:09;;;;;;;1.92;1.60;;;20.60;75.00;;;;;;5042018;28;20033;-60
2023/07/30 05:44:35;;;;;;;2.55;1.77;;;20.70;75.10;;;;;;5032861;28;20048;-60
2023/07/30 05:47:01;;;;;;;5.47;1.92;;;20.70;75.00;;;;;;5045083;28;20551;-61
2023/07/30 05:49:26;;;;;;;2.30;1.50;;;20.70;74.70;;;;;;5039353;28;20079;-60
2023/07/30 05:51:52;;;;;;;4.30;1.75;;;20.80;74.70;;;;;;5047884;28;20055;-59
2023/07/30 05:54:18;;;;;;;4.25;1.70;;;20.80;74.70;;;;;;5042937;28;20137;-61
2023/07/30 05:56:43;;;;;;;3.60;1.63;;;20.80;74.80;;;;;;5041093;28;20052;-62
2023/07/30 05:59:09;;;;;;;1.95;1.70;;;20.80;75.00;;;;;;5038468;28;20024;-61
2023/07/30 06:01:35;;;;;;;2.30;1.65;;;20.90;75.00;;;;;;5035327;28;20512;-61
2023/07/30 06:04:00;;;;;;;2.22;1.42;;;20.90;74.70;;;;;;5040153;28;20087;-60
2023/07/30 06:06:29;;;;;;;4.63;1.58;;;21.00;74.80;;;;;;5042910;28;20069;-61
2023/07/30 06:08:55;;;;;;;2.50;1.45;;;21.00;74.90;;;;;;5041713;28;20037;-61
2023/07/30 06:11:21;;;;;;;2.78;1.73;;;21.10;75.10;;;;;;5041335;28;20021;-61
2023/07/30 06:13:47;;;;;;;2.47;1.50;;;21.10;75.10;;;;;;5039954;28;20033;-61
2023/07/30 06:16:14;;;;;;;3.03;1.90;;;21.10;74.90;;;;;;4934981;28;20552;-60
2023/07/30 06:18:40;;;;;;;6.60;1.88;;;21.20;74.80;;;;;;5038335;28;20483;-60
2023/07/30 06:21:05;;;;;;;6.72;2.30;;;21.20;74.50;;;;;;5039132;28;20029;-63
2023/07/30 06:23:31;;;;;;;3.50;2.50;;;21.20;74.40;;;;;;5042222;28;20028;-61
2023/07/30 06:25:57;;;;;;;4.15;2.03;;;21.30;74.50;;;;;;5042125;28;20112;-61
2023/07/30 06:28:23;;;;;;;3.72;1.63;;;21.30;74.60;;;;;;5041658;28;20025;-61
2023/07/30 06:30:49;;;;;;;1.60;1.50;;;21.40;74.70;;;;;;5040563;28;20448;-61
2023/07/30 06:33:16;;;;;;;3.10;1.33;;;21.50;74.60;;;;;;5046019;28;20037;-62
2023/07/30 06:35:42;;;;;;;2.78;1.60;;;21.50;74.60;;;;;;5041035;28;20048;-63
2023/07/30 06:38:08;;;;;;;1.88;1.42;;;21.60;74.70;;;;;;5041627;28;20506;-62
2023/07/30 06:40:34;;;;;;;1.27;1.17;;;21.60;74.50;;;;;;5034256;28;20017;-62
2023/07/30 06:43:00;;;;;;;2.08;1.42;;;21.70;74.20;;;;;;5042195;28;20544;-61
2023/07/30 06:45:26;;;;;;;3.65;1.90;;;21.80;74.10;;;;;;5044324;28;20469;-62
2023/07/30 06:47:51;;;;;;;3.30;1.63;;;21.80;74.20;;;;;;5040595;28;20030;-61
2023/07/30 06:50:17;;;;;;;6.82;1.80;;;21.80;73.90;;;;;;5042706;28;20067;-61
2023/07/30 06:52:43;;;;;;;2.70;1.52;;;21.90;73.70;;;;;;5038968;28;20490;-61
2023/07/30 06:55:08;;;;;;;3.00;1.80;;;21.90;73.80;;;;;;5035696;28;20029;-61
2023/07/30 06:57:34;;;;;;;2.15;1.42;;;22.00;73.80;;;;;;5038099;28;20521;-62
2023/07/30 07:00:00;;;;;;;4.53;1.45;;;22.00;73.90;;;;;;5038125;28;20431;-62
2023/07/30 07:02:26;;;;;;;3.83;1.60;;;22.00;73.80;;;;;;5035919;28;20021;-63
2023/07/30 07:04:52;;;;;;;5.32;1.70;;;22.10;73.80;;;;;;5040580;28;20029;-62
2023/07/30 07:07:17;;;;;;;4.78;1.20;;;22.20;74.00;;;;;;5040487;28;20634;-63
2023/07/30 07:09:43;;;;;;;3.03;1.42;;;22.20;73.80;;;;;;5038874;28;20076;-61
2023/07/30 07:12:09;;;;;;;4.10;2.05;;;22.30;73.30;;;;;;5021145;28;20022;-61
2023/07/30 07:14:34;;;;;;;3.10;1.50;;;22.30;72.80;;;;;;5032569;28;20083;-60
2023/07/30 07:17:00;;;;;;;1.23;1.13;;;22.40;72.70;;;;;;4977095;28;20116;-61
2023/07/30 07:19:26;;;;;;;4.00;1.30;;;22.40;72.50;;;;;;5037282;28;20251;-61
2023/07/30 07:21:51;;;;;;;1.90;1.20;;;22.40;72.40;;;;;;5048536;28;20127;-61
2023/07/30 07:24:17;;;;;;;1.30;1.10;;;22.40;71.90;;;;;;5037613;28;20096;-61
2023/07/30 07:26:42;;;;;;;3.67;1.05;;;22.30;71.90;;;;;;5044541;28;20029;-60
2023/07/30 07:29:09;;;;;;;1.30;1.00;;;22.30;72.00;;;;;;5041979;28;20128;-60
2023/07/30 07:31:35;;;;;;;1.42;1.13;;;22.20;71.80;;;;;;5042455;28;20023;-60
2023/07/30 07:34:00;;;;;;;1.33;1.10;;;22.20;72.10;;;;;;5040963;28;20028;-62
2023/07/30 07:36:26;;;;;;;1.42;1.05;;;22.20;72.40;;;;;;5044734;28;20065;-61
2023/07/30 07:38:51;;;;;;;1.25;1.13;;;22.20;72.20;;;;;;5050467;28;20025;-61
2023/07/30 07:41:17;;;;;;;1.55;1.30;;;22.30;71.80;;;;;;5031915;28;20112;-61
2023/07/30 07:43:44;;;;;;;1.20;1.10;;;22.40;72.00;;;;;;5046651;28;20075;-61
2023/07/30 07:46:13;;;;;;;1.65;1.38;;;22.40;71.80;;;;;;5043812;28;20087;-61
2023/07/30 07:48:43;;;;;;;1.63;1.40;;;22.40;71.50;;;;;;5046056;28;20109;-62
2023/07/30 07:51:12;;;;;;;1.50;1.20;;;22.50;71.80;;;;;;5042934;28;20033;-61
2023/07/30 07:53:38;;;;;;;1.63;1.20;;;22.50;71.50;;;;;;5040205;28;20460;-61
2023/07/30 07:56:04;;;;;;;1.65;1.15;;;22.50;71.50;;;;;;5039376;28;20053;-61
2023/07/30 07:58:31;;;;;;;1.45;1.35;;;22.60;71.30;;;;;;5039891;28;20053;-62
2023/07/30 08:00:57;;;;;;;1.45;1.35;;;22.60;71.60;;;;;;5042028;28;20079;-62
2023/07/30 08:03:23;;;;;;;1.38;1.25;;;22.70;71.60;;;;;;5040605;28;20033;-61
2023/07/30 08:05:49;;;;;;;1.65;1.23;;;22.80;71.40;;;;;;5048231;28;20037;-61
2023/07/30 08:08:16;;;;;;;2.05;1.33;;;22.80;71.30;;;;;;5039106;28;20122;-61
2023/07/30 08:10:47;;;;;;;1.63;1.25;;;22.90;70.60;;;;;;5044062;28;20021;-61
2023/07/30 08:13:13;;;;;;;1.33;1.15;;;22.90;71.00;;;;;;5038493;28;20114;-61
2023/07/30 08:15:39;;;;;;;1.30;1.13;;;23.00;70.90;;;;;;5040649;28;20029;-62
2023/07/30 08:18:05;;;;;;;3.20;1.42;;;23.20;71.10;;;;;;5046818;28;20025;-62
2023/07/30 08:20:30;;;;;;;1.00;0.90;;;23.30;71.00;;;;;;5043846;28;20049;-61
2023/07/30 08:22:56;;;;;;;3.20;1.10;;;23.50;69.50;;;;;;5043985;28;20550;-63
2023/07/30 08:25:22;;;;;;;10.80;1.27;;;23.60;68.30;;;;;;5044855;28;20065;-62
2023/07/30 08:27:47;;;;;;;3.13;1.40;;;23.80;68.10;;;;;;5037767;28;20056;-62
2023/07/30 08:30:13;;;;;;;1.65;1.20;;;23.90;67.90;;;;;;5046546;28;20096;-62
2023/07/30 08:32:41;;;;;;;1.08;0.90;;;24.00;67.60;;;;;;5045692;28;20033;-62
2023/07/30 08:35:07;;;;;;;0.70;0.70;;;24.20;67.10;;;;;;5042209;28;20048;-61
2023/07/30 08:37:33;;;;;;;1.05;0.80;;;24.50;66.80;;;;;;5020668;28;20032;-63
2023/07/30 08:39:58;;;;;;;1.10;1.00;;;24.60;66.20;;;;;;5046692;28;20033;-62
2023/07/30 08:42:24;;;;;;;1.48;1.10;;;24.70;65.40;;;;;;5042149;28;20037;-62
2023/07/30 08:44:50;;;;;;;2.03;1.00;;;24.80;64.40;;;;;;5051503;28;20067;-61
2023/07/30 08:47:15;;;;;;;1.25;0.85;;;24.80;63.70;;;;;;5044331;28;20043;-61
2023/07/30 08:49:41;;;;;;;2.10;1.08;;;24.80;63.10;;;;;;5046115;28;20029;-60
2023/07/30 08:52:10;;;;;;;1.42;0.93;;;24.70;62.90;;;;;;5043194;28;20029;-61
2023/07/30 08:54:38;;;;;;;4.13;0.90;;;24.50;62.10;;;;;;5035586;28;20029;-62
2023/07/30 08:57:05;;;;;;;2.00;1.00;;;24.30;63.10;;;;;;5042169;28;20071;-62
2023/07/30 08:59:41;;;;;;;1.38;0.85;;;24.10;62.60;;;;;;5039976;28;20035;-61
2023/07/30 09:02:12;;;;;;;1.55;0.90;;;23.80;62.20;;;;;;5041697;28;20083;-62
2023/07/30 09:04:39;;;;;;;2.47;0.90;;;23.50;61.60;;;;;;5041958;28;20035;-62
2023/07/30 09:07:09;;;;;;;1.40;0.77;;;23.30;62.90;;;;;;5043812;28;20029;-62
2023/07/30 09:09:36;;;;;;;2.10;0.80;;;23.00;63.20;;;;;;5042633;28;20432;-61
2023/07/30 09:12:02;;;;;;;1.75;1.00;;;22.80;64.20;;;;;;5040726;28;20166;-61
2023/07/30 09:14:28;;;;;;;1.05;0.88;;;22.60;66.30;;;;;;5039898;28;20148;-62
2023/07/30 09:17:00;;;;;;;0.90;0.90;;;22.50;65.00;;;;;;5041472;28;20021;-60
2023/07/30 09:19:26;;;;;;;0.80;0.80;;;22.40;65.60;;;;;;5036339;28;20025;-61
2023/07/30 09:21:52;;;;;;;0.90;0.82;;;22.30;66.70;;;;;;5040621;28;20108;-59
2023/07/30 09:24:22;;;;;;;1.25;0.85;;;22.20;67.50;;;;;;5019452;28;20572;-60
2023/07/30 09:26:47;;;;;;;1.95;1.13;;;22.20;67.00;;;;;;5041673;28;20522;-61
2023/07/30 09:29:13;;;;;;;1.30;1.20;;;22.20;66.50;;;;;;5038787;28;20017;-61
2023/07/30 09:31:54;;;;;;;0.95;0.75;;;22.20;66.70;;;;;;5035928;28;20021;-61
2023/07/30 09:34:21;;;;;;;0.80;0.75;;;22.20;67.30;;;;;;5040220;28;20017;-61
2023/07/30 09:36:48;;;;;;;1.15;0.80;;;22.20;67.10;;;;;;5020302;28;20499;-60
2023/07/30 09:39:19;;;;;;;1.08;0.90;;;22.30;67.10;;;;;;5041457;28;20021;-61
2023/07/30 09:41:45;;;;;;;1.77;1.00;;;22.30;66.90;;;;;;5044042;28;20541;-61
2023/07/30 09:44:12;;;;;;;0.60;0.60;;;22.30;68.20;;;;;;5040322;28;20056;-60
2023/07/30 09:46:46;;;;;;;1.95;1.08;;;22.40;68.60;;;;;;5041427;28;20460;-61
2023/07/30 09:49:12;;;;;;;0.88;0.85;;;22.60;68.40;;;;;;5044923;28;20454;-62
2023/07/30 09:51:39;;;;;;;2.45;1.02;;;22.70;68.80;;;;;;5040457;28;20163;-61
2023/07/30 09:54:15;;;;;;;1.25;0.85;;;22.90;68.10;;;;;;5043987;28;20179;-62
2023/07/30 09:56:42;;;;;;;3.00;1.00;;;23.10;67.90;;;;;;5041611;28;20056;-61
2023/07/30 09:59:08;;;;;;;4.72;1.00;;;23.30;68.10;;;;;;5047371;28;20021;-61
2023/07/30 10:01:49;;;;;;;1.42;1.05;;;23.40;68.10;;;;;;5038647;28;20020;-60
2023/07/30 10:04:16;;;;;;;1.02;0.80;;;23.60;66.40;;;;;;5040938;28;20507;-61
2023/07/30 10:07:08;;;;;;;1.38;0.90;;;23.80;66.70;;;;;;5037386;28;20322;-61
2023/07/30 10:09:45;;;;;;;1.23;0.85;;;24.00;65.40;;;;;;5034092;28;20060;-61
2023/07/30 10:12:16;;;;;;;1.58;1.20;;;24.10;64.50;;;;;;5038564;28;20356;-61
2023/07/30 10:14:43;;;;;;;3.25;0.98;;;24.10;63.90;;;;;;5040127;28;20468;-61
2023/07/30 10:17:12;;;;;;;1.10;1.00;;;24.20;64.40;;;;;;4911327;28;20032;-61
2023/07/30 10:19:38;;;;;;;1.00;0.90;;;24.20;63.40;;;;;;5041564;28;20017;-62
2023/07/30 10:22:12;;;;;;;1.33;1.00;;;24.30;63.20;;;;;;5046772;28;20025;-62
2023/07/30 10:24:39;;;;;;;1.33;0.90;;;24.30;62.70;;;;;;5037560;28;20038;-62
2023/07/30 10:27:09;;;;;;;1.08;0.95;;;24.30;62.70;;;;;;5040257;28;20107;-60
2023/07/30 10:29:36;;;;;;;1.33;0.90;;;24.40;62.00;;;;;;5043409;28;20029;-61
2023/07/30 10:32:02;;;;;;;3.35;1.00;;;24.40;61.60;;;;;;5041694;28;20415;-61
2023/07/30 10:34:45;;;;;;;1.48;1.15;;;24.30;61.90;;;;;;5033360;28;20137;-61
2023/07/30 10:37:10;;;;;;;0.90;0.90;;;24.30;60.60;;;;;;5041163;28;20029;-62
2023/07/30 10:39:36;;;;;;;1.52;0.85;;;24.30;61.20;;;;;;5042220;28;20032;-62
2023/07/30 10:42:02;;;;;;;1.33;1.10;;;24.30;61.20;;;;;;5014965;28;20487;-62
2023/07/30 10:44:33;;;;;;;1.85;1.00;;;24.20;61.30;;;;;;5042129;28;20064;-62
2023/07/30 10:47:00;;;;;;;0.90;0.90;;;24.20;61.10;;;;;;5045653;28;20154;-61
2023/07/30 10:49:26;;;;;;;2.53;1.20;;;24.20;61.00;;;;;;5041220;28;20029;-61
2023/07/30 10:51:59;;;;;;;1.20;0.90;;;24.20;60.40;;;;;;5046491;28;20021;-60
2023/07/30 10:54:25;;;;;;;1.05;0.80;;;24.20;60.60;;;;;;5047758;28;20029;-60
2023/07/30 10:56:51;;;;;;;1.67;1.02;;;24.20;60.90;;;;;;5045208;28;20375;-61
2023/07/30 10:59:19;;;;;;;0.80;0.80;;;24.20;60.90;;;;;;5048292;28;20040;-61
2023/07/30 11:01:45;;;;;;;0.85;0.70;;;24.20;60.90;;;;;;5043881;28;20392;-62
2023/07/30 11:04:18;;;;;;;1.23;0.98;;;24.20;61.20;;;;;;5036212;28;20101;-62
2023/07/30 11:06:49;;;;;;;0.90;0.80;;;24.20;60.10;;;;;;5043005;28;20028;-61
2023/07/30 11:09:23;;;;;;;1.85;0.85;;;24.20;60.00;;;;;;5044126;28;20393;-61
2023/07/30 11:11:49;;;;;;;0.80;0.80;;;24.20;58.70;;;;;;5045026;28;20017;-61
2023/07/30 11:14:20;;;;;;;1.27;0.80;;;24.10;58.60;;;;;;5039587;28;20052;-61
2023/07/30 11:16:49;;;;;;;1.20;0.73;;;24.00;59.10;;;;;;4938291;28;20531;-62
2023/07/30 11:19:15;;;;;;;1.00;0.90;;;23.80;59.10;;;;;;5045102;28;20478;-61
2023/07/30 11:21:48;;;;;;;1.15;1.00;;;23.70;58.70;;;;;;5044520;28;20025;-61
2023/07/30 11:24:14;;;;;;;1.20;1.10;;;23.60;58.90;;;;;;5045243;28;20447;-62
2023/07/30 11:26:41;;;;;;;1.35;0.90;;;23.50;59.10;;;;;;5047434;28;20279;-61
2023/07/30 11:29:32;;;;;;;2.25;1.00;;;23.40;59.00;;;;;;5045398;28;20108;-62
2023/07/30 11:32:02;;;;;;;2.60;1.30;;;23.40;58.80;;;;;;5044360;28;20116;-62
2023/07/30 11:34:28;;;;;;;1.90;0.90;;;23.40;59.70;;;;;;5045409;28;20025;-61
2023/07/30 11:36:54;;;;;;;1.10;1.00;;;23.40;59.80;;;;;;5042873;28;20116;-62
2023/07/30 11:39:21;;;;;;;4.53;1.27;;;23.50;60.30;;;;;;5040611;28;20036;-62
2023/07/30 11:41:47;;;;;;;2.08;1.40;;;23.70;59.30;;;;;;5047699;28;20029;-62
2023/07/30 11:44:34;;;;;;;4.60;1.48;;;23.80;57.70;;;;;;5037553;28;20091;-62
2023/07/30 11:46:59;;;;;;;1.80;1.17;;;23.90;56.70;;;;;;5046546;28;20534;-62
2023/07/30 11:49:25;;;;;;;2.10;1.88;;;23.90;57.10;;;;;;5036031;28;20116;-62
2023/07/30 11:51:51;;;;;;;2.15;1.00;;;24.00;56.60;;;;;;5046793;28;20021;-61
2023/07/30 11:54:22;;;;;;;2.30;1.10;;;24.10;56.80;;;;;;5044505;28;20021;-61
2023/07/30 11:56:56;;;;;;;1.80;1.20;;;24.20;56.50;;;;;;5041618;28;20045;-62
2023/07/30 11:59:22;;;;;;;1.77;1.45;;;24.30;56.80;;;;;;5040832;28;20033;-63
2023/07/30 12:01:48;;;;;;;1.88;1.17;;;24.40;55.50;;;;;;5046142;28;20490;-62
2023/07/30 12:04:14;;;;;;;1.90;1.25;;;24.50;54.20;;;;;;5045169;28;20059;-62
2023/07/30 12:06:44;;;;;;;12.40;2.15;;;24.50;53.20;;;;;;5045341;28;20498;-62
2023/07/30 12:09:14;;;;;;;3.17;1.30;;;24.50;53.60;;;;;;5048041;28;20492;-62
2023/07/30 12:11:54;;;;;;;1.77;1.20;;;24.40;53.00;;;;;;5038906;28;20017;-62
2023/07/30 12:14:25;;;;;;;2.60;1.42;;;24.40;52.30;;;;;;5046529;28;20112;-62
2023/07/30 12:16:51;;;;;;;1.40;1.17;;;24.30;53.50;;;;;;4958447;28;20037;-62
2023/07/30 12:19:16;;;;;;;1.20;1.10;;;24.30;54.00;;;;;;5038004;28;20039;-62
2023/07/30 12:21:42;;;;;;;2.35;1.58;;;24.40;54.20;;;;;;5044736;28;20100;-62
2023/07/30 12:24:08;;;;;;;5.32;1.63;;;24.50;52.90;;;;;;5047130;28;20456;-62
2023/07/30 12:26:33;;;;;;;3.47;1.50;;;24.60;53.60;;;;;;5041124;28;20110;-62
2023/07/30 12:28:59;;;;;;;1.30;1.13;;;24.70;52.80;;;;;;5041945;28;20094;-62
2023/07/30 12:31:25;;;;;;;1.42;1.20;;;24.90;51.30;;;;;;5047212;28;20483;-63
2023/07/30 12:33:50;;;;;;;3.75;1.35;;;24.90;51.30;;;;;;5048809;28;20039;-61
2023/07/30 12:36:16;;;;;;;2.20;1.38;;;24.90;50.40;;;;;;5040861;28;20057;-62
2023/07/30 12:38:42;;;;;;;2.97;1.30;;;24.90;51.30;;;;;;5025503;28;20041;-62
2023/07/30 12:41:07;;;;;;;1.73;1.30;;;24.90;51.70;;;;;;5040937;28;20319;-61
2023/07/30 12:43:33;;;;;;;2.67;1.63;;;24.90;51.70;;;;;;5042184;28;20191;-62
2023/07/30 12:45:59;;;;;;;1.35;1.25;;;25.00;51.70;;;;;;5038404;28;20032;-61